Terminal Aerodrome Forecast
Issued by NWS Topeka, KS

Home | Current Version | Previous Version | Text Only | Print | Product List | Glossary Off
Versions: 1 2 3 4 5 6 7 8 9 10 11 12 13 14 15 16 17

000
FTUS43 KTOP 192300
TAFTOP
TAF
KTOP 192325Z 2000/2024 05011KT P6SM -SHRA SCT040 BKN060
     FM200400 05012KT 5SM -RA BR OVC030
     FM200700 03013G21KT 3SM -RA BR OVC007
     FM201200 03012KT 5SM -DZ BR OVC009=

USA.gov is the U.S. government's official web portal to all federal, state and local government web resources and services.